PWSweather.com
Personal Weather Stations
Station Observations
IHTIMAN1
Neighbourhood 1, IhtimanBG 2050

Neighbourhood 1IhtimanBG 2050

Lat: 42.436852, Lon: 23.817921

Elevation: 2066

Station Type: Oregon Scientific WMR968

http://ihtiman-meteo.com

High Low Average
Temperature 51.6°F10.9°C 41.2°F5.1°C 43.9°F6.6°C
Dew Point 42.1°F5.6°C 33.2°F0.7°C 35.8°F2.1°C
Winds 16.1 mph 25.9 kmh 3.5 mph 5.6 kmh 9.0 mph NW14.5 kmh NW
Wind Gusts 24.2 mph38.9 kmh 5.8 mph9.3 kmh 14.0 mph22.5 kmh
Humidity 86% 55% 73%
Pressure 30.06 in1017.9 mb 29.77 in1008.1 mb -
Precipitation 0.00 in0.0 mm - -
Hour Temp Dew Point Humidity Winds Wind Gusts Pressure Precip Precip Rate Daily Precip Total
12:00 AM 46.4°F8.0°C 42.1°F5.6°C 85% 6.9 mph NNW11.1 kmh NNW 10.4 mph16.7 kmh 29.77 in1008.1 mb - 0.00 in0.0 mm 0.00 in0.0 mm
12:10 AM 46.2°F7.9°C 42.0°F5.6°C 85% 6.9 mph N11.1 kmh N 12.7 mph20.4 kmh 29.77 in1008.1 mb - 0.00 in0.0 mm 0.00 in0.0 mm
12:20 AM 46.0°F7.8°C 41.8°F5.4°C 85% 9.2 mph N14.8 kmh N 17.3 mph27.8 kmh 29.77 in1008.1 mb - 0.00 in0.0 mm 0.00 in0.0 mm
12:30 AM 45.5°F7.5°C 40.9°F4.9°C 84% 6.9 mph NNW11.1 kmh NNW 15.0 mph24.1 kmh 29.77 in1008.1 mb - 0.00 in0.0 mm 0.00 in0.0 mm
12:40 AM 45.0°F7.2°C 40.1°F4.5°C 83% 9.2 mph N14.8 kmh N 12.7 mph20.4 kmh 29.77 in1008.1 mb - 0.00 in0.0 mm 0.00 in0.0 mm
12:50 AM 44.6°F7.0°C 39.8°F4.3°C 83% 10.4 mph NNW16.7 kmh NNW 17.3 mph27.8 kmh 29.80 in1009.1 mb - 0.00 in0.0 mm 0.00 in0.0 mm
01:00 AM 44.2°F6.8°C 39.7°F4.3°C 84% 8.1 mph NNW13.0 kmh NNW 15.0 mph24.1 kmh 29.80 in1009.1 mb - 0.00 in0.0 mm 0.00 in0.0 mm
01:10 AM 44.1°F6.7°C 39.8°F4.3°C 85% 9.2 mph NNW14.8 kmh NNW 17.3 mph27.8 kmh 29.80 in1009.1 mb - 0.00 in0.0 mm 0.00 in0.0 mm
01:20 AM 43.7°F6.5°C 39.5°F4.2°C 85% 11.5 mph N18.5 kmh N 18.4 mph29.6 kmh 29.80 in1009.1 mb - 0.00 in0.0 mm 0.00 in0.0 mm
01:30 AM 43.5°F6.4°C 39.0°F3.9°C 84% 9.2 mph NNW14.8 kmh NNW 11.5 mph18.5 kmh 29.80 in1009.1 mb - 0.00 in0.0 mm 0.00 in0.0 mm
01:40 AM 43.7°F6.5°C 38.6°F3.7°C 82% 6.9 mph N11.1 kmh N 15.0 mph24.1 kmh 29.80 in1009.1 mb - 0.00 in0.0 mm 0.00 in0.0 mm
01:50 AM 43.7°F6.5°C 37.9°F3.3°C 80% 8.1 mph 13.0 kmh 10.4 mph16.7 kmh 29.80 in1009.1 mb - 0.00 in0.0 mm 0.00 in0.0 mm
02:00 AM 43.5°F6.4°C 37.4°F3.0°C 79% 9.2 mph NNW14.8 kmh NNW 12.7 mph20.4 kmh 29.80 in1009.1 mb - 0.00 in0.0 mm 0.00 in0.0 mm
02:10 AM 43.5°F6.4°C 36.8°F2.7°C 77% 8.1 mph N13.0 kmh N 12.7 mph20.4 kmh 29.80 in1009.1 mb - 0.00 in0.0 mm 0.00 in0.0 mm
02:20 AM 43.3°F6.3°C 36.6°F2.6°C 77% 10.4 mph N16.7 kmh N 12.7 mph20.4 kmh 29.80 in1009.1 mb - 0.00 in0.0 mm 0.00 in0.0 mm
02:30 AM 43.3°F6.3°C 36.3°F2.4°C 76% 6.9 mph N11.1 kmh N 17.3 mph27.8 kmh 29.80 in1009.1 mb - 0.00 in0.0 mm 0.00 in0.0 mm
02:40 AM 43.0°F6.1°C 36.3°F2.4°C 77% 6.9 mph N11.1 kmh N 12.7 mph20.4 kmh 29.80 in1009.1 mb - 0.00 in0.0 mm 0.00 in0.0 mm
02:50 AM 43.0°F6.1°C 36.3°F2.4°C 77% 9.2 mph N14.8 kmh N 11.5 mph18.5 kmh 29.80 in1009.1 mb - 0.00 in0.0 mm 0.00 in0.0 mm
03:00 AM 42.8°F6.0°C 36.1°F2.3°C 77% 8.1 mph N13.0 kmh N 11.5 mph18.5 kmh 29.80 in1009.1 mb - 0.00 in0.0 mm 0.00 in0.0 mm
03:10 AM 42.8°F6.0°C 35.8°F2.1°C 76% 6.9 mph NNW11.1 kmh NNW 10.4 mph16.7 kmh 29.80 in1009.1 mb - 0.00 in0.0 mm 0.00 in0.0 mm
03:20 AM 42.6°F5.9°C 35.9°F2.2°C 77% 4.6 mph NNW7.4 kmh NNW 10.4 mph16.7 kmh 29.80 in1009.1 mb - 0.00 in0.0 mm 0.00 in0.0 mm
03:30 AM 42.4°F5.8°C 35.7°F2.1°C 77% 9.2 mph NNW14.8 kmh NNW 12.7 mph20.4 kmh 29.82 in1009.8 mb - 0.00 in0.0 mm 0.00 in0.0 mm
03:40 AM 42.2°F5.7°C 35.5°F1.9°C 77% 10.4 mph NNW16.7 kmh NNW 12.7 mph20.4 kmh 29.82 in1009.8 mb - 0.00 in0.0 mm 0.00 in0.0 mm
03:50 AM 42.1°F5.6°C 35.1°F1.7°C 76% 6.9 mph N11.1 kmh N 10.4 mph16.7 kmh 29.82 in1009.8 mb - 0.00 in0.0 mm 0.00 in0.0 mm
04:00 AM 41.9°F5.5°C 34.9°F1.6°C 76% 9.2 mph NNW14.8 kmh NNW 11.5 mph18.5 kmh 29.82 in1009.8 mb - 0.00 in0.0 mm 0.00 in0.0 mm
04:10 AM 41.8°F5.4°C 34.8°F1.6°C 76% 9.2 mph NNW14.8 kmh NNW 12.7 mph20.4 kmh 29.82 in1009.8 mb - 0.00 in0.0 mm 0.00 in0.0 mm
04:20 AM 41.9°F5.5°C 34.9°F1.6°C 76% 8.1 mph WNW13.0 kmh WNW 10.4 mph16.7 kmh 29.82 in1009.8 mb - 0.00 in0.0 mm 0.00 in0.0 mm
04:30 AM 41.9°F5.5°C 34.9°F1.6°C 76% 4.6 mph NW7.4 kmh NW 8.1 mph13.0 kmh 29.82 in1009.8 mb - 0.00 in0.0 mm 0.00 in0.0 mm
04:40 AM 41.8°F5.4°C 34.8°F1.6°C 76% 5.8 mph NW9.3 kmh NW 8.1 mph13.0 kmh 29.82 in1009.8 mb - 0.00 in0.0 mm 0.00 in0.0 mm
04:50 AM 41.5°F5.3°C 34.8°F1.6°C 77% 6.9 mph NW11.1 kmh NW 9.2 mph14.8 kmh 29.82 in1009.8 mb - 0.00 in0.0 mm 0.00 in0.0 mm
05:00 AM 41.2°F5.1°C 34.9°F1.6°C 78% 6.9 mph NW11.1 kmh NW 10.4 mph16.7 kmh 29.82 in1009.8 mb - 0.00 in0.0 mm 0.00 in0.0 mm
05:10 AM 41.4°F5.2°C 35.1°F1.7°C 78% 6.9 mph NNW11.1 kmh NNW 10.4 mph16.7 kmh 29.82 in1009.8 mb - 0.00 in0.0 mm 0.00 in0.0 mm
05:20 AM 41.5°F5.3°C 35.2°F1.8°C 78% 9.2 mph NW14.8 kmh NW 10.4 mph16.7 kmh 29.82 in1009.8 mb - 0.00 in0.0 mm 0.00 in0.0 mm
05:30 AM 41.7°F5.4°C 35.0°F1.7°C 77% 6.9 mph NW11.1 kmh NW 11.5 mph18.5 kmh 29.82 in1009.8 mb - 0.00 in0.0 mm 0.00 in0.0 mm
05:40 AM 41.7°F5.4°C 35.0°F1.7°C 77% 9.2 mph NNW14.8 kmh NNW 11.5 mph18.5 kmh 29.82 in1009.8 mb - 0.00 in0.0 mm 0.00 in0.0 mm
05:50 AM 41.7°F5.4°C 35.0°F1.7°C 77% 8.1 mph NNW13.0 kmh NNW 12.7 mph20.4 kmh 29.82 in1009.8 mb - 0.00 in0.0 mm 0.00 in0.0 mm
06:00 AM 41.8°F5.4°C 34.8°F1.6°C 76% 6.9 mph NNW11.1 kmh NNW 8.1 mph13.0 kmh 29.82 in1009.8 mb - 0.00 in0.0 mm 0.00 in0.0 mm
06:10 AM 41.7°F5.4°C 34.7°F1.5°C 76% 9.2 mph WNW14.8 kmh WNW 11.5 mph18.5 kmh 29.82 in1009.8 mb - 0.00 in0.0 mm 0.00 in0.0 mm
06:20 AM 41.7°F5.4°C 35.0°F1.7°C 77% 8.1 mph NNW13.0 kmh NNW 12.7 mph20.4 kmh 29.82 in1009.8 mb - 0.00 in0.0 mm 0.00 in0.0 mm
06:30 AM 42.1°F5.6°C 35.0°F1.7°C 76% 8.1 mph NNW13.0 kmh NNW 13.8 mph22.2 kmh 29.86 in1011.2 mb - 0.00 in0.0 mm 0.00 in0.0 mm
06:40 AM 42.3°F5.7°C 35.2°F1.8°C 76% 6.9 mph NNW11.1 kmh NNW 12.7 mph20.4 kmh 29.86 in1011.2 mb - 0.00 in0.0 mm 0.00 in0.0 mm
06:50 AM 42.6°F5.9°C 35.6°F2.0°C 76% 10.4 mph N16.7 kmh N 12.7 mph20.4 kmh 29.86 in1011.2 mb - 0.00 in0.0 mm 0.00 in0.0 mm
07:00 AM 43.0°F6.1°C 35.3°F1.8°C 74% 8.1 mph NW13.0 kmh NW 9.2 mph14.8 kmh 29.86 in1011.2 mb - 0.00 in0.0 mm 0.00 in0.0 mm
07:10 AM 43.7°F6.5°C 35.6°F2.0°C 73% 10.4 mph N16.7 kmh N 15.0 mph24.1 kmh 29.86 in1011.2 mb - 0.00 in0.0 mm 0.00 in0.0 mm
07:20 AM 43.7°F6.5°C 35.6°F2.0°C 73% 6.9 mph NNW11.1 kmh NNW 16.1 mph25.9 kmh 29.86 in1011.2 mb - 0.00 in0.0 mm 0.00 in0.0 mm
07:30 AM 43.4°F6.3°C 35.0°F1.7°C 72% 9.2 mph NNW14.8 kmh NNW 15.0 mph24.1 kmh 29.86 in1011.2 mb - 0.00 in0.0 mm 0.00 in0.0 mm
07:40 AM 43.9°F6.6°C 35.4°F1.9°C 72% 9.2 mph NNW14.8 kmh NNW 12.7 mph20.4 kmh 29.86 in1011.2 mb - 0.00 in0.0 mm 0.00 in0.0 mm
07:50 AM 43.9°F6.6°C 35.1°F1.7°C 71% 8.1 mph NW13.0 kmh NW 12.7 mph20.4 kmh 29.86 in1011.2 mb - 0.00 in0.0 mm 0.00 in0.0 mm
08:00 AM 44.1°F6.7°C 35.3°F1.8°C 71% 8.1 mph NW13.0 kmh NW 12.7 mph20.4 kmh 29.86 in1011.2 mb - 0.00 in0.0 mm 0.00 in0.0 mm
08:10 AM 44.4°F6.9°C 35.6°F2.0°C 71% 8.1 mph NNW13.0 kmh NNW 11.5 mph18.5 kmh 29.86 in1011.2 mb - 0.00 in0.0 mm 0.00 in0.0 mm
08:20 AM 44.7°F7.1°C 35.2°F1.8°C 69% 9.2 mph NNW14.8 kmh NNW 12.7 mph20.4 kmh 29.86 in1011.2 mb - 0.00 in0.0 mm 0.00 in0.0 mm
08:30 AM 45.7°F7.6°C 35.7°F2.1°C 68% 8.1 mph NNW13.0 kmh NNW 12.7 mph20.4 kmh 29.86 in1011.2 mb - 0.00 in0.0 mm 0.00 in0.0 mm
08:40 AM 45.7°F7.6°C 35.4°F1.9°C 67% 9.2 mph NNW14.8 kmh NNW 18.4 mph29.6 kmh 29.86 in1011.2 mb - 0.00 in0.0 mm 0.00 in0.0 mm
08:50 AM 45.9°F7.7°C 35.1°F1.7°C 66% 10.4 mph NW16.7 kmh NW 15.0 mph24.1 kmh 29.86 in1011.2 mb - 0.00 in0.0 mm 0.00 in0.0 mm
09:00 AM 45.7°F7.6°C 34.6°F1.4°C 65% 15.0 mph NW24.1 kmh NW 16.1 mph25.9 kmh 29.86 in1011.2 mb - 0.00 in0.0 mm 0.00 in0.0 mm
09:10 AM 45.9°F7.7°C 34.8°F1.6°C 65% 11.5 mph N18.5 kmh N 15.0 mph24.1 kmh 29.86 in1011.2 mb - 0.00 in0.0 mm 0.00 in0.0 mm
09:20 AM 45.7°F7.6°C 34.6°F1.4°C 65% 10.4 mph N16.7 kmh N 15.0 mph24.1 kmh 29.86 in1011.2 mb - 0.00 in0.0 mm 0.00 in0.0 mm
09:30 AM 45.2°F7.3°C 34.2°F1.2°C 65% 13.8 mph NW22.2 kmh NW 19.6 mph31.5 kmh 29.86 in1011.2 mb - 0.00 in0.0 mm 0.00 in0.0 mm
09:40 AM 45.5°F7.5°C 34.4°F1.3°C 65% 8.1 mph NW13.0 kmh NW 12.7 mph20.4 kmh 29.86 in1011.2 mb - 0.00 in0.0 mm 0.00 in0.0 mm
09:50 AM 45.9°F7.7°C 34.8°F1.6°C 65% 11.5 mph NW18.5 kmh NW 19.6 mph31.5 kmh 29.86 in1011.2 mb - 0.00 in0.0 mm 0.00 in0.0 mm
10:00 AM 46.6°F8.1°C 35.1°F1.7°C 64% 11.5 mph N18.5 kmh N 15.0 mph24.1 kmh 29.86 in1011.2 mb - 0.00 in0.0 mm 0.00 in0.0 mm
10:10 AM 47.3°F8.5°C 35.3°F1.8°C 63% 12.7 mph NNW20.4 kmh NNW 15.0 mph24.1 kmh 29.86 in1011.2 mb - 0.00 in0.0 mm 0.00 in0.0 mm
10:20 AM 47.1°F8.4°C 34.8°F1.6°C 62% 12.7 mph N20.4 kmh N 17.3 mph27.8 kmh 29.88 in1011.9 mb - 0.00 in0.0 mm 0.00 in0.0 mm
10:30 AM 47.5°F8.6°C 35.1°F1.7°C 62% 12.7 mph NNW20.4 kmh NNW 17.3 mph27.8 kmh 29.88 in1011.9 mb - 0.00 in0.0 mm 0.00 in0.0 mm
10:40 AM 48.0°F8.9°C 35.6°F2.0°C 62% 10.4 mph NW16.7 kmh NW 12.7 mph20.4 kmh 29.88 in1011.9 mb - 0.00 in0.0 mm 0.00 in0.0 mm
10:50 AM 47.3°F8.5°C 34.1°F1.2°C 60% 12.7 mph NW20.4 kmh NW 19.6 mph31.5 kmh 29.88 in1011.9 mb - 0.00 in0.0 mm 0.00 in0.0 mm
11:00 AM 47.5°F8.6°C 34.3°F1.3°C 60% 12.7 mph NNW20.4 kmh NNW 15.0 mph24.1 kmh 29.88 in1011.9 mb - 0.00 in0.0 mm 0.00 in0.0 mm
11:10 AM 47.7°F8.7°C 34.4°F1.3°C 60% 12.7 mph N20.4 kmh N 17.3 mph27.8 kmh 29.88 in1011.9 mb - 0.00 in0.0 mm 0.00 in0.0 mm
11:20 AM 47.8°F8.8°C 34.6°F1.4°C 60% 10.4 mph NW16.7 kmh NW 15.0 mph24.1 kmh 29.88 in1011.9 mb - 0.00 in0.0 mm 0.00 in0.0 mm
11:30 AM 48.3°F9.1°C 34.6°F1.4°C 59% 15.0 mph NNW24.1 kmh NNW 18.4 mph29.6 kmh 29.88 in1011.9 mb - 0.00 in0.0 mm 0.00 in0.0 mm
11:40 AM 48.1°F8.9°C 34.4°F1.3°C 59% 11.5 mph N18.5 kmh N 15.0 mph24.1 kmh 29.88 in1011.9 mb - 0.00 in0.0 mm 0.00 in0.0 mm
11:50 AM 48.2°F9.0°C 34.9°F1.6°C 60% 10.4 mph N16.7 kmh N 19.6 mph31.5 kmh 29.86 in1011.2 mb - 0.00 in0.0 mm 0.00 in0.0 mm
12:00 PM 48.7°F9.3°C 35.0°F1.7°C 59% 10.4 mph NNW16.7 kmh NNW 15.0 mph24.1 kmh 29.88 in1011.9 mb - 0.00 in0.0 mm 0.00 in0.0 mm
12:10 PM 51.6°F10.9°C 36.9°F2.7°C 57% 16.1 mph N25.9 kmh N 24.2 mph38.9 kmh 29.88 in1011.9 mb - 0.00 in0.0 mm 0.00 in0.0 mm
12:20 PM 48.7°F9.3°C 33.2°F0.7°C 55% 12.7 mph N20.4 kmh N 17.3 mph27.8 kmh 29.88 in1011.9 mb - 0.00 in0.0 mm 0.00 in0.0 mm
12:30 PM 47.4°F8.6°C 33.3°F0.7°C 58% 16.1 mph NNW25.9 kmh NNW 20.7 mph33.3 kmh 29.88 in1011.9 mb - 0.00 in0.0 mm 0.00 in0.0 mm
12:40 PM 47.4°F8.6°C 34.2°F1.2°C 60% 11.5 mph NNW18.5 kmh NNW 16.1 mph25.9 kmh 29.88 in1011.9 mb - 0.00 in0.0 mm 0.00 in0.0 mm
12:50 PM 47.3°F8.5°C 34.1°F1.2°C 60% 12.7 mph NNW20.4 kmh NNW 21.9 mph35.2 kmh 29.88 in1011.9 mb - 0.00 in0.0 mm 0.00 in0.0 mm
01:00 PM 46.6°F8.1°C 33.5°F0.8°C 60% 10.4 mph NNW16.7 kmh NNW 23.0 mph37.0 kmh 29.88 in1011.9 mb - 0.00 in0.0 mm 0.00 in0.0 mm
01:10 PM 46.4°F8.0°C 33.7°F0.9°C 61% 10.4 mph NNW16.7 kmh NNW 15.0 mph24.1 kmh 29.88 in1011.9 mb - 0.00 in0.0 mm 0.00 in0.0 mm
01:20 PM 45.7°F7.6°C 33.5°F0.8°C 62% 13.8 mph NW22.2 kmh NW 21.9 mph35.2 kmh 29.88 in1011.9 mb - 0.00 in0.0 mm 0.00 in0.0 mm
01:30 PM 45.8°F7.7°C 34.3°F1.3°C 64% 11.5 mph NNW18.5 kmh NNW 17.3 mph27.8 kmh 29.88 in1011.9 mb - 0.00 in0.0 mm 0.00 in0.0 mm
01:40 PM 45.9°F7.7°C 34.4°F1.3°C 64% 9.2 mph N14.8 kmh N 17.3 mph27.8 kmh 29.88 in1011.9 mb - 0.00 in0.0 mm 0.00 in0.0 mm
01:50 PM 45.8°F7.7°C 34.3°F1.3°C 64% 13.8 mph NNW22.2 kmh NNW 18.4 mph29.6 kmh 29.91 in1012.9 mb - 0.00 in0.0 mm 0.00 in0.0 mm
02:00 PM 45.1°F7.3°C 33.7°F0.9°C 64% 15.0 mph NNW24.1 kmh NNW 19.6 mph31.5 kmh 29.91 in1012.9 mb - 0.00 in0.0 mm 0.00 in0.0 mm
02:10 PM 44.6°F7.0°C 33.6°F0.9°C 65% 13.8 mph NNW22.2 kmh NNW 19.6 mph31.5 kmh 29.91 in1012.9 mb - 0.00 in0.0 mm 0.00 in0.0 mm
02:20 PM 44.8°F7.1°C 34.5°F1.4°C 67% 10.4 mph NNW16.7 kmh NNW 15.0 mph24.1 kmh 29.91 in1012.9 mb - 0.00 in0.0 mm 0.00 in0.0 mm
02:30 PM 44.6°F7.0°C 34.3°F1.3°C 67% 11.5 mph NW18.5 kmh NW 13.8 mph22.2 kmh 29.91 in1012.9 mb - 0.00 in0.0 mm 0.00 in0.0 mm
02:40 PM 44.5°F6.9°C 34.6°F1.4°C 68% 10.4 mph NNW16.7 kmh NNW 13.8 mph22.2 kmh 29.91 in1012.9 mb - 0.00 in0.0 mm 0.00 in0.0 mm
02:50 PM 44.6°F7.0°C 34.7°F1.5°C 68% 12.7 mph NW20.4 kmh NW 17.3 mph27.8 kmh 29.91 in1012.9 mb - 0.00 in0.0 mm 0.00 in0.0 mm
03:00 PM 44.1°F6.7°C 34.5°F1.4°C 69% 10.4 mph NW16.7 kmh NW 13.8 mph22.2 kmh 29.91 in1012.9 mb - 0.00 in0.0 mm 0.00 in0.0 mm
03:10 PM 44.2°F6.8°C 34.7°F1.5°C 69% 11.5 mph NW18.5 kmh NW 20.7 mph33.3 kmh 29.91 in1012.9 mb - 0.00 in0.0 mm 0.00 in0.0 mm
03:20 PM 44.1°F6.7°C 34.5°F1.4°C 69% 11.5 mph N18.5 kmh N 18.4 mph29.6 kmh 29.91 in1012.9 mb - 0.00 in0.0 mm 0.00 in0.0 mm
03:30 PM 43.5°F6.4°C 34.4°F1.3°C 70% 10.4 mph NW16.7 kmh NW 12.7 mph20.4 kmh 29.91 in1012.9 mb - 0.00 in0.0 mm 0.00 in0.0 mm
03:40 PM 43.4°F6.3°C 34.6°F1.4°C 71% 12.7 mph NNW20.4 kmh NNW 18.4 mph29.6 kmh 29.91 in1012.9 mb - 0.00 in0.0 mm 0.00 in0.0 mm
03:50 PM 43.7°F6.5°C 34.9°F1.6°C 71% 11.5 mph NW18.5 kmh NW 17.3 mph27.8 kmh 29.91 in1012.9 mb - 0.00 in0.0 mm 0.00 in0.0 mm
04:00 PM 43.9°F6.6°C 35.1°F1.7°C 71% 15.0 mph NNW24.1 kmh NNW 17.3 mph27.8 kmh 29.94 in1013.9 mb - 0.00 in0.0 mm 0.00 in0.0 mm
04:10 PM 43.7°F6.5°C 34.9°F1.6°C 71% 12.7 mph NW20.4 kmh NW 11.5 mph18.5 kmh 29.94 in1013.9 mb - 0.00 in0.0 mm 0.00 in0.0 mm
04:20 PM 43.9°F6.6°C 35.1°F1.7°C 71% 11.5 mph NNW18.5 kmh NNW 19.6 mph31.5 kmh 29.94 in1013.9 mb - 0.00 in0.0 mm 0.00 in0.0 mm
04:30 PM 44.1°F6.7°C 35.3°F1.8°C 71% 12.7 mph NNW20.4 kmh NNW 17.3 mph27.8 kmh 29.94 in1013.9 mb - 0.00 in0.0 mm 0.00 in0.0 mm
04:40 PM 43.8°F6.6°C 35.0°F1.7°C 71% 13.8 mph N22.2 kmh N 18.4 mph29.6 kmh 29.94 in1013.9 mb - 0.00 in0.0 mm 0.00 in0.0 mm
04:50 PM 43.3°F6.3°C 34.9°F1.6°C 72% 13.8 mph NNW22.2 kmh NNW 17.3 mph27.8 kmh 29.94 in1013.9 mb - 0.00 in0.0 mm 0.00 in0.0 mm
05:00 PM 43.5°F6.4°C 35.1°F1.7°C 72% 12.7 mph NW20.4 kmh NW 17.3 mph27.8 kmh 29.94 in1013.9 mb - 0.00 in0.0 mm 0.00 in0.0 mm
05:10 PM 43.3°F6.3°C 35.3°F1.8°C 73% 11.5 mph NNW18.5 kmh NNW 15.0 mph24.1 kmh 29.94 in1013.9 mb - 0.00 in0.0 mm 0.00 in0.0 mm
05:20 PM 43.2°F6.2°C 35.1°F1.7°C 73% 11.5 mph NW18.5 kmh NW 15.0 mph24.1 kmh 29.94 in1013.9 mb - 0.00 in0.0 mm 0.00 in0.0 mm
05:30 PM 43.0°F6.1°C 34.9°F1.6°C 73% 11.5 mph NW18.5 kmh NW 16.1 mph25.9 kmh 29.97 in1014.9 mb - 0.00 in0.0 mm 0.00 in0.0 mm
05:40 PM 42.8°F6.0°C 35.1°F1.7°C 74% 8.1 mph N13.0 kmh N 10.4 mph16.7 kmh 29.97 in1014.9 mb - 0.00 in0.0 mm 0.00 in0.0 mm
05:50 PM 42.6°F5.9°C 35.2°F1.8°C 75% 9.2 mph NW14.8 kmh NW 12.7 mph20.4 kmh 29.97 in1014.9 mb - 0.00 in0.0 mm 0.00 in0.0 mm
06:00 PM 42.4°F5.8°C 35.4°F1.9°C 76% 10.4 mph NW16.7 kmh NW 12.7 mph20.4 kmh 30.00 in1015.9 mb - 0.00 in0.0 mm 0.00 in0.0 mm
06:10 PM 42.3°F5.7°C 35.2°F1.8°C 76% 10.4 mph NW16.7 kmh NW 12.7 mph20.4 kmh 30.00 in1015.9 mb - 0.00 in0.0 mm 0.00 in0.0 mm
06:20 PM 42.3°F5.7°C 35.6°F2.0°C 77% 11.5 mph NNW18.5 kmh NNW 17.3 mph27.8 kmh 30.00 in1015.9 mb - 0.00 in0.0 mm 0.00 in0.0 mm
06:30 PM 42.3°F5.7°C 35.6°F2.0°C 77% 8.1 mph NNW13.0 kmh NNW 12.7 mph20.4 kmh 30.00 in1015.9 mb - 0.00 in0.0 mm 0.00 in0.0 mm
06:40 PM 42.3°F5.7°C 35.6°F2.0°C 77% 10.4 mph NNW16.7 kmh NNW 17.3 mph27.8 kmh 30.00 in1015.9 mb - 0.00 in0.0 mm 0.00 in0.0 mm
06:50 PM 42.4°F5.8°C 35.7°F2.1°C 77% 11.5 mph NNW18.5 kmh NNW 18.4 mph29.6 kmh 30.00 in1015.9 mb - 0.00 in0.0 mm 0.00 in0.0 mm
07:00 PM 42.4°F5.8°C 35.7°F2.1°C 77% 8.1 mph NNW13.0 kmh NNW 12.7 mph20.4 kmh 30.00 in1015.9 mb - 0.00 in0.0 mm 0.00 in0.0 mm
07:10 PM 42.4°F5.8°C 35.7°F2.1°C 77% 9.2 mph NNW14.8 kmh NNW 12.7 mph20.4 kmh 30.00 in1015.9 mb - 0.00 in0.0 mm 0.00 in0.0 mm
07:20 PM 42.6°F5.9°C 35.9°F2.2°C 77% 9.2 mph NNW14.8 kmh NNW 15.0 mph24.1 kmh 30.03 in1016.9 mb - 0.00 in0.0 mm 0.00 in0.0 mm
07:30 PM 42.7°F5.9°C 35.7°F2.1°C 76% 10.4 mph NW16.7 kmh NW 12.7 mph20.4 kmh 30.03 in1016.9 mb - 0.00 in0.0 mm 0.00 in0.0 mm
07:40 PM 42.8°F6.0°C 35.8°F2.1°C 76% 9.2 mph NNW14.8 kmh NNW 12.7 mph20.4 kmh 30.03 in1016.9 mb - 0.00 in0.0 mm 0.00 in0.0 mm
07:50 PM 42.8°F6.0°C 35.8°F2.1°C 76% 9.2 mph NW14.8 kmh NW 15.0 mph24.1 kmh 30.03 in1016.9 mb - 0.00 in0.0 mm 0.00 in0.0 mm
08:00 PM 42.8°F6.0°C 35.8°F2.1°C 76% 9.2 mph NNW14.8 kmh NNW 12.7 mph20.4 kmh 30.03 in1016.9 mb - 0.00 in0.0 mm 0.00 in0.0 mm
08:10 PM 42.8°F6.0°C 35.8°F2.1°C 76% 9.2 mph NW14.8 kmh NW 12.7 mph20.4 kmh 30.03 in1016.9 mb - 0.00 in0.0 mm 0.00 in0.0 mm
08:20 PM 42.8°F6.0°C 35.8°F2.1°C 76% 8.1 mph NW13.0 kmh NW 10.4 mph16.7 kmh 30.03 in1016.9 mb - 0.00 in0.0 mm 0.00 in0.0 mm
08:30 PM 42.8°F6.0°C 35.8°F2.1°C 76% 9.2 mph NNW14.8 kmh NNW 10.4 mph16.7 kmh 30.06 in1017.9 mb - 0.00 in0.0 mm 0.00 in0.0 mm
08:40 PM 42.6°F5.9°C 35.9°F2.2°C 77% 5.8 mph NNW9.3 kmh NNW 8.1 mph13.0 kmh 30.06 in1017.9 mb - 0.00 in0.0 mm 0.00 in0.0 mm
08:50 PM 42.4°F5.8°C 36.1°F2.3°C 78% 6.9 mph NW11.1 kmh NW 9.2 mph14.8 kmh 30.06 in1017.9 mb - 0.00 in0.0 mm 0.00 in0.0 mm
09:00 PM 42.4°F5.8°C 36.1°F2.3°C 78% 5.8 mph NNW9.3 kmh NNW 9.2 mph14.8 kmh 30.06 in1017.9 mb - 0.00 in0.0 mm 0.00 in0.0 mm
09:10 PM 41.7°F5.4°C 36.6°F2.6°C 82% 5.8 mph NNW9.3 kmh NNW 9.2 mph14.8 kmh 30.06 in1017.9 mb - 0.00 in0.0 mm 0.00 in0.0 mm
09:20 PM 41.7°F5.4°C 36.6°F2.6°C 82% 4.6 mph NW7.4 kmh NW 10.4 mph16.7 kmh 30.06 in1017.9 mb - 0.00 in0.0 mm 0.00 in0.0 mm
09:30 PM 41.7°F5.4°C 36.6°F2.6°C 82% 4.6 mph NW7.4 kmh NW 8.1 mph13.0 kmh 30.06 in1017.9 mb - 0.00 in0.0 mm 0.00 in0.0 mm
09:40 PM 41.5°F5.3°C 37.7°F3.2°C 86% 4.6 mph N7.4 kmh N 5.8 mph9.3 kmh 30.06 in1017.9 mb - 0.00 in0.0 mm 0.00 in0.0 mm
09:50 PM 41.5°F5.3°C 37.7°F3.2°C 86% 4.6 mph N7.4 kmh N 8.1 mph13.0 kmh 30.06 in1017.9 mb - 0.00 in0.0 mm 0.00 in0.0 mm
10:00 PM 41.5°F5.3°C 37.7°F3.2°C 86% 4.6 mph NW7.4 kmh NW 5.8 mph9.3 kmh 30.06 in1017.9 mb - 0.00 in0.0 mm 0.00 in0.0 mm
10:10 PM 41.5°F5.3°C 37.7°F3.2°C 86% 3.5 mph NNW5.6 kmh NNW 8.1 mph13.0 kmh 30.06 in1017.9 mb - 0.00 in0.0 mm 0.00 in0.0 mm
10:20 PM 41.5°F5.3°C 37.7°F3.2°C 86% 5.8 mph NW9.3 kmh NW 8.1 mph13.0 kmh 30.06 in1017.9 mb - 0.00 in0.0 mm 0.00 in0.0 mm
10:30 PM 42.1°F5.6°C 38.2°F3.4°C 86% 4.6 mph NW7.4 kmh NW 8.1 mph13.0 kmh 30.06 in1017.9 mb - 0.00 in0.0 mm 0.00 in0.0 mm
10:40 PM 42.1°F5.6°C 38.2°F3.4°C 86% 5.8 mph NW9.3 kmh NW 8.1 mph13.0 kmh 30.06 in1017.9 mb - 0.00 in0.0 mm 0.00 in0.0 mm
10:50 PM 42.1°F5.6°C 38.2°F3.4°C 86% 4.6 mph NNW7.4 kmh NNW 6.9 mph11.1 kmh 30.06 in1017.9 mb - 0.00 in0.0 mm 0.00 in0.0 mm
11:00 PM 42.1°F5.6°C 38.2°F3.4°C 86% 5.8 mph NW9.3 kmh NW 9.2 mph14.8 kmh 30.06 in1017.9 mb - 0.00 in0.0 mm 0.00 in0.0 mm
11:10 PM 42.2°F5.7°C 38.0°F3.3°C 85% 8.1 mph NNW13.0 kmh NNW 11.5 mph18.5 kmh 30.06 in1017.9 mb - 0.00 in0.0 mm 0.00 in0.0 mm
11:20 PM 42.6°F5.9°C 37.5°F3.1°C 82% 6.9 mph N11.1 kmh N 10.4 mph16.7 kmh 30.06 in1017.9 mb - 0.00 in0.0 mm 0.00 in0.0 mm
11:30 PM 42.6°F5.9°C 37.2°F2.9°C 81% 9.2 mph NNW14.8 kmh NNW 15.0 mph24.1 kmh 30.06 in1017.9 mb - 0.00 in0.0 mm 0.00 in0.0 mm
11:40 PM 42.8°F6.0°C 37.1°F2.8°C 80% 3.5 mph NW5.6 kmh NW 8.1 mph13.0 kmh 30.06 in1017.9 mb - 0.00 in0.0 mm 0.00 in0.0 mm
11:50 PM 42.6°F5.9°C 36.9°F2.7°C 80% 5.8 mph NW9.3 kmh NW 8.1 mph13.0 kmh 30.06 in1017.9 mb - 0.00 in0.0 mm 0.00 in0.0 mm